sensor_id;sensor_type;location;lat;lon;timestamp;temperature;humidity
13652;DHT22;6899;51.546;6.912;2024-01-15T00:00:13;0.60;99.90
13652;DHT22;6899;51.546;6.912;2024-01-15T00:02:40;0.70;99.90
13652;DHT22;6899;51.546;6.912;2024-01-15T00:05:07;0.60;99.90
13652;DHT22;6899;51.546;6.912;2024-01-15T00:07:34;0.60;99.90
13652;DHT22;6899;51.546;6.912;2024-01-15T00:10:01;0.70;99.90
13652;DHT22;6899;51.546;6.912;2024-01-15T00:12:29;0.60;99.90
13652;DHT22;6899;51.546;6.912;2024-01-15T00:14:56;0.60;99.90
13652;DHT22;6899;51.546;6.912;2024-01-15T00:17:23;0.60;99.90
13652;DHT22;6899;51.546;6.912;2024-01-15T00:19:49;0.60;99.90
13652;DHT22;6899;51.546;6.912;2024-01-15T00:22:16;0.70;99.90
13652;DHT22;6899;51.546;6.912;2024-01-15T00:24:43;0.70;99.90
13652;DHT22;6899;51.546;6.912;2024-01-15T00:27:10;0.70;99.90
13652;DHT22;6899;51.546;6.912;2024-01-15T00:29:38;0.70;99.90
13652;DHT22;6899;51.546;6.912;2024-01-15T00:32:05;0.70;99.90
13652;DHT22;6899;51.546;6.912;2024-01-15T00:34:32;0.70;99.90
13652;DHT22;6899;51.546;6.912;2024-01-15T00:36:59;0.70;99.90
13652;DHT22;6899;51.546;6.912;2024-01-15T00:39:26;0.70;99.90
13652;DHT22;6899;51.546;6.912;2024-01-15T00:41:53;0.70;99.90
13652;DHT22;6899;51.546;6.912;2024-01-15T00:44:19;0.70;99.90
13652;DHT22;6899;51.546;6.912;2024-01-15T00:46:48;0.70;99.90
13652;DHT22;6899;51.546;6.912;2024-01-15T00:49:15;0.70;99.90
13652;DHT22;6899;51.546;6.912;2024-01-15T00:51:42;0.70;99.90
13652;DHT22;6899;51.546;6.912;2024-01-15T00:54:08;0.70;99.90
13652;DHT22;6899;51.546;6.912;2024-01-15T00:56:36;0.70;99.90
13652;DHT22;6899;51.546;6.912;2024-01-15T00:59:03;0.80;99.90
13652;DHT22;6899;51.546;6.912;2024-01-15T01:01:29;0.70;99.90
13652;DHT22;6899;51.546;6.912;2024-01-15T01:03:58;0.70;99.90
13652;DHT22;6899;51.546;6.912;2024-01-15T01:06:24;0.70;99.90
13652;DHT22;6899;51.546;6.912;2024-01-15T01:08:51;0.70;99.90
13652;DHT22;6899;51.546;6.912;2024-01-15T01:11:18;0.70;99.90
13652;DHT22;6899;51.546;6.912;2024-01-15T01:13:45;0.70;99.90
13652;DHT22;6899;51.546;6.912;2024-01-15T01:16:12;0.60;99.90
13652;DHT22;6899;51.546;6.912;2024-01-15T01:18:38;0.60;99.90
13652;DHT22;6899;51.546;6.912;2024-01-15T01:21:06;0.60;99.90
13652;DHT22;6899;51.546;6.912;2024-01-15T01:23:33;0.70;99.90
13652;DHT22;6899;51.546;6.912;2024-01-15T01:26:00;0.60;99.90
13652;DHT22;6899;51.546;6.912;2024-01-15T01:28:27;0.60;99.90
13652;DHT22;6899;51.546;6.912;2024-01-15T01:30:54;0.50;99.90
13652;DHT22;6899;51.546;6.912;2024-01-15T01:33:21;0.60;99.90
13652;DHT22;6899;51.546;6.912;2024-01-15T01:35:48;0.60;99.90
13652;DHT22;6899;51.546;6.912;2024-01-15T01:38:16;0.60;99.90
13652;DHT22;6899;51.546;6.912;2024-01-15T01:40:43;0.70;99.90
13652;DHT22;6899;51.546;6.912;2024-01-15T01:43:09;0.70;99.90
13652;DHT22;6899;51.546;6.912;2024-01-15T01:45:36;0.70;99.90
13652;DHT22;6899;51.546;6.912;2024-01-15T01:48:04;0.70;99.90
13652;DHT22;6899;51.546;6.912;2024-01-15T01:50:31;0.70;99.90
13652;DHT22;6899;51.546;6.912;2024-01-15T01:52:59;0.70;99.90
13652;DHT22;6899;51.546;6.912;2024-01-15T01:55:29;0.70;99.90
13652;DHT22;6899;51.546;6.912;2024-01-15T01:57:59;0.70;99.90
13652;DHT22;6899;51.546;6.912;2024-01-15T02:00:26;0.70;99.90
13652;DHT22;6899;51.546;6.912;2024-01-15T02:02:53;0.70;99.90
13652;DHT22;6899;51.546;6.912;2024-01-15T02:05:20;0.70;99.90
13652;DHT22;6899;51.546;6.912;2024-01-15T02:07:47;0.70;99.90
13652;DHT22;6899;51.546;6.912;2024-01-15T02:10:14;0.70;99.90
13652;DHT22;6899;51.546;6.912;2024-01-15T02:12:43;0.80;99.90
13652;DHT22;6899;51.546;6.912;2024-01-15T02:15:11;0.80;99.90
13652;DHT22;6899;51.546;6.912;2024-01-15T02:17:56;0.70;99.90
13652;DHT22;6899;51.546;6.912;2024-01-15T02:20:23;0.80;99.90
13652;DHT22;6899;51.546;6.912;2024-01-15T02:22:49;0.80;99.90
13652;DHT22;6899;51.546;6.912;2024-01-15T02:25:18;0.70;99.90
13652;DHT22;6899;51.546;6.912;2024-01-15T02:27:45;0.70;99.90
13652;DHT22;6899;51.546;6.912;2024-01-15T02:30:13;0.60;99.90
13652;DHT22;6899;51.546;6.912;2024-01-15T02:32:39;0.60;99.90
13652;DHT22;6899;51.546;6.912;2024-01-15T02:35:07;0.70;99.90
13652;DHT22;6899;51.546;6.912;2024-01-15T02:40:57;0.70;99.90
13652;DHT22;6899;51.546;6.912;2024-01-15T02:43:23;0.70;99.90
13652;DHT22;6899;51.546;6.912;2024-01-15T02:45:50;0.70;99.90
13652;DHT22;6899;51.546;6.912;2024-01-15T02:48:17;0.70;99.90
13652;DHT22;6899;51.546;6.912;2024-01-15T02:50:44;0.70;99.90
13652;DHT22;6899;51.546;6.912;2024-01-15T02:53:11;0.70;99.90
13652;DHT22;6899;51.546;6.912;2024-01-15T02:55:37;0.70;99.90
13652;DHT22;6899;51.546;6.912;2024-01-15T02:58:05;0.70;99.90
13652;DHT22;6899;51.546;6.912;2024-01-15T03:00:32;0.70;99.90
13652;DHT22;6899;51.546;6.912;2024-01-15T03:02:59;0.70;99.90
13652;DHT22;6899;51.546;6.912;2024-01-15T03:05:26;0.70;99.90
13652;DHT22;6899;51.546;6.912;2024-01-15T03:07:52;0.70;99.90
13652;DHT22;6899;51.546;6.912;2024-01-15T03:10:19;0.70;99.90
13652;DHT22;6899;51.546;6.912;2024-01-15T03:12:46;0.70;99.90
13652;DHT22;6899;51.546;6.912;2024-01-15T03:15:14;0.70;99.90
13652;DHT22;6899;51.546;6.912;2024-01-15T03:17:41;0.70;99.90
13652;DHT22;6899;51.546;6.912;2024-01-15T03:20:09;0.70;99.90
13652;DHT22;6899;51.546;6.912;2024-01-15T03:22:36;0.80;99.90
13652;DHT22;6899;51.546;6.912;2024-01-15T03:25:03;0.80;99.90
13652;DHT22;6899;51.546;6.912;2024-01-15T03:27:30;0.70;99.90
13652;DHT22;6899;51.546;6.912;2024-01-15T03:29:57;0.70;99.90
13652;DHT22;6899;51.546;6.912;2024-01-15T03:32:25;0.70;99.90
13652;DHT22;6899;51.546;6.912;2024-01-15T03:34:52;0.70;99.90
13652;DHT22;6899;51.546;6.912;2024-01-15T03:37:18;0.80;99.90
13652;DHT22;6899;51.546;6.912;2024-01-15T03:39:46;0.80;99.90
13652;DHT22;6899;51.546;6.912;2024-01-15T03:42:13;0.70;99.90
13652;DHT22;6899;51.546;6.912;2024-01-15T03:44:40;0.60;99.90
13652;DHT22;6899;51.546;6.912;2024-01-15T03:47:06;0.70;99.90
13652;DHT22;6899;51.546;6.912;2024-01-15T03:49:34;0.70;99.90
13652;DHT22;6899;51.546;6.912;2024-01-15T03:52:10;0.70;99.90
13652;DHT22;6899;51.546;6.912;2024-01-15T03:54:37;0.70;99.90
13652;DHT22;6899;51.546;6.912;2024-01-15T03:57:04;0.70;99.90
13652;DHT22;6899;51.546;6.912;2024-01-15T03:59:31;0.70;99.90
13652;DHT22;6899;51.546;6.912;2024-01-15T04:01:58;0.70;99.90
13652;DHT22;6899;51.546;6.912;2024-01-15T04:04:24;0.70;99.90
13652;DHT22;6899;51.546;6.912;2024-01-15T04:06:52;0.70;99.90
13652;DHT22;6899;51.546;6.912;2024-01-15T04:09:19;0.60;99.90
13652;DHT22;6899;51.546;6.912;2024-01-15T04:11:46;0.60;99.90
13652;DHT22;6899;51.546;6.912;2024-01-15T04:14:13;0.70;99.90
13652;DHT22;6899;51.546;6.912;2024-01-15T04:16:39;0.70;99.90
13652;DHT22;6899;51.546;6.912;2024-01-15T04:19:06;0.70;99.90
13652;DHT22;6899;51.546;6.912;2024-01-15T04:21:33;0.70;99.90
13652;DHT22;6899;51.546;6.912;2024-01-15T04:24:01;0.80;99.90
13652;DHT22;6899;51.546;6.912;2024-01-15T04:26:28;0.80;99.90
13652;DHT22;6899;51.546;6.912;2024-01-15T04:28:55;0.80;99.90
13652;DHT22;6899;51.546;6.912;2024-01-15T04:31:23;0.80;99.90
13652;DHT22;6899;51.546;6.912;2024-01-15T04:33:50;0.90;99.90
13652;DHT22;6899;51.546;6.912;2024-01-15T04:36:17;0.80;99.90
13652;DHT22;6899;51.546;6.912;2024-01-15T04:38:44;0.80;99.90
13652;DHT22;6899;51.546;6.912;2024-01-15T04:41:13;0.90;99.90
13652;DHT22;6899;51.546;6.912;2024-01-15T04:43:40;0.90;99.90
13652;DHT22;6899;51.546;6.912;2024-01-15T04:46:06;0.80;99.90
13652;DHT22;6899;51.546;6.912;2024-01-15T04:48:33;0.80;99.90
13652;DHT22;6899;51.546;6.912;2024-01-15T04:51:00;0.80;99.90
13652;DHT22;6899;51.546;6.912;2024-01-15T04:53:27;0.80;99.90
13652;DHT22;6899;51.546;6.912;2024-01-15T04:55:53;0.80;99.90
13652;DHT22;6899;51.546;6.912;2024-01-15T04:58:21;0.70;99.90
13652;DHT22;6899;51.546;6.912;2024-01-15T05:00:50;0.70;99.90
13652;DHT22;6899;51.546;6.912;2024-01-15T05:03:17;0.80;99.90
13652;DHT22;6899;51.546;6.912;2024-01-15T05:05:44;0.70;99.90
13652;DHT22;6899;51.546;6.912;2024-01-15T05:08:11;0.70;99.90
13652;DHT22;6899;51.546;6.912;2024-01-15T05:10:37;0.70;99.90
13652;DHT22;6899;51.546;6.912;2024-01-15T05:13:04;0.60;99.90
13652;DHT22;6899;51.546;6.912;2024-01-15T05:15:32;0.60;99.90
13652;DHT22;6899;51.546;6.912;2024-01-15T05:17:59;0.70;99.90
13652;DHT22;6899;51.546;6.912;2024-01-15T05:20:26;0.60;99.90
13652;DHT22;6899;51.546;6.912;2024-01-15T05:22:52;0.60;99.90
13652;DHT22;6899;51.546;6.912;2024-01-15T05:25:19;0.70;99.90
13652;DHT22;6899;51.546;6.912;2024-01-15T05:27:46;0.70;99.90
13652;DHT22;6899;51.546;6.912;2024-01-15T05:30:13;0.70;99.90
13652;DHT22;6899;51.546;6.912;2024-01-15T05:32:42;0.70;99.90
13652;DHT22;6899;51.546;6.912;2024-01-15T05:35:08;0.70;99.90
13652;DHT22;6899;51.546;6.912;2024-01-15T05:37:35;0.70;99.90
13652;DHT22;6899;51.546;6.912;2024-01-15T05:40:02;0.70;99.90
13652;DHT22;6899;51.546;6.912;2024-01-15T05:42:30;0.70;99.90
13652;DHT22;6899;51.546;6.912;2024-01-15T05:44:57;0.70;99.90
13652;DHT22;6899;51.546;6.912;2024-01-15T05:47:27;0.80;99.90
13652;DHT22;6899;51.546;6.912;2024-01-15T05:49:56;0.80;99.90
13652;DHT22;6899;51.546;6.912;2024-01-15T05:52:23;0.80;99.90
13652;DHT22;6899;51.546;6.912;2024-01-15T05:54:50;0.80;99.90
13652;DHT22;6899;51.546;6.912;2024-01-15T05:57:16;0.90;99.90
13652;DHT22;6899;51.546;6.912;2024-01-15T05:59:44;0.80;99.90
13652;DHT22;6899;51.546;6.912;2024-01-15T06:02:11;0.90;99.90
13652;DHT22;6899;51.546;6.912;2024-01-15T06:04:38;0.90;99.90
13652;DHT22;6899;51.546;6.912;2024-01-15T06:07:06;0.80;99.90
13652;DHT22;6899;51.546;6.912;2024-01-15T06:09:33;0.80;99.90
13652;DHT22;6899;51.546;6.912;2024-01-15T06:11:59;0.80;99.90
13652;DHT22;6899;51.546;6.912;2024-01-15T06:14:26;0.80;99.90
13652;DHT22;6899;51.546;6.912;2024-01-15T06:16:53;0.80;99.90
13652;DHT22;6899;51.546;6.912;2024-01-15T06:19:20;0.90;99.90
13652;DHT22;6899;51.546;6.912;2024-01-15T06:21:46;0.90;99.90
13652;DHT22;6899;51.546;6.912;2024-01-15T06:24:14;0.90;99.90
13652;DHT22;6899;51.546;6.912;2024-01-15T06:26:43;0.90;99.90
13652;DHT22;6899;51.546;6.912;2024-01-15T06:29:10;0.90;99.90
13652;DHT22;6899;51.546;6.912;2024-01-15T06:31:36;0.90;99.90
13652;DHT22;6899;51.546;6.912;2024-01-15T06:34:03;0.90;99.90
13652;DHT22;6899;51.546;6.912;2024-01-15T06:36:30;0.90;99.90
13652;DHT22;6899;51.546;6.912;2024-01-15T06:38:57;0.90;99.90
13652;DHT22;6899;51.546;6.912;2024-01-15T06:41:25;0.80;99.90
13652;DHT22;6899;51.546;6.912;2024-01-15T06:43:52;0.90;99.90
13652;DHT22;6899;51.546;6.912;2024-01-15T06:46:20;0.90;99.90
13652;DHT22;6899;51.546;6.912;2024-01-15T06:48:47;0.90;99.90
13652;DHT22;6899;51.546;6.912;2024-01-15T06:51:15;0.90;99.90
13652;DHT22;6899;51.546;6.912;2024-01-15T06:53:42;0.80;99.90
13652;DHT22;6899;51.546;6.912;2024-01-15T06:56:08;0.90;99.90
13652;DHT22;6899;51.546;6.912;2024-01-15T06:58:37;0.90;99.90
13652;DHT22;6899;51.546;6.912;2024-01-15T07:01:03;0.90;99.90
13652;DHT22;6899;51.546;6.912;2024-01-15T07:03:31;0.80;99.90
13652;DHT22;6899;51.546;6.912;2024-01-15T07:05:58;0.90;99.90
13652;DHT22;6899;51.546;6.912;2024-01-15T07:08:24;0.90;99.90
13652;DHT22;6899;51.546;6.912;2024-01-15T07:10:51;0.90;99.90
13652;DHT22;6899;51.546;6.912;2024-01-15T07:13:18;0.90;99.90
13652;DHT22;6899;51.546;6.912;2024-01-15T07:15:46;0.90;99.90
13652;DHT22;6899;51.546;6.912;2024-01-15T07:18:13;0.90;99.90
13652;DHT22;6899;51.546;6.912;2024-01-15T07:20:40;0.90;99.90
13652;DHT22;6899;51.546;6.912;2024-01-15T07:23:07;0.90;99.90
13652;DHT22;6899;51.546;6.912;2024-01-15T07:25:33;1.00;99.90
13652;DHT22;6899;51.546;6.912;2024-01-15T07:28:00;0.90;99.90
13652;DHT22;6899;51.546;6.912;2024-01-15T07:30:27;0.90;99.90
13652;DHT22;6899;51.546;6.912;2024-01-15T07:32:55;1.00;99.90
13652;DHT22;6899;51.546;6.912;2024-01-15T07:35:22;1.00;99.90
13652;DHT22;6899;51.546;6.912;2024-01-15T07:37:48;1.00;99.90
13652;DHT22;6899;51.546;6.912;2024-01-15T07:40:15;0.90;99.90
13652;DHT22;6899;51.546;6.912;2024-01-15T07:42:42;1.00;99.90
13652;DHT22;6899;51.546;6.912;2024-01-15T07:45:10;0.90;99.90
13652;DHT22;6899;51.546;6.912;2024-01-15T07:47:36;1.00;99.90
13652;DHT22;6899;51.546;6.912;2024-01-15T07:50:05;1.00;99.90
13652;DHT22;6899;51.546;6.912;2024-01-15T07:52:32;1.00;99.90
13652;DHT22;6899;51.546;6.912;2024-01-15T07:54:59;0.90;99.90
13652;DHT22;6899;51.546;6.912;2024-01-15T07:57:26;0.90;99.90
13652;DHT22;6899;51.546;6.912;2024-01-15T07:59:53;0.90;99.90
13652;DHT22;6899;51.546;6.912;2024-01-15T08:02:20;0.90;99.90
13652;DHT22;6899;51.546;6.912;2024-01-15T08:04:47;0.80;99.90
13652;DHT22;6899;51.546;6.912;2024-01-15T08:07:15;0.80;99.90
13652;DHT22;6899;51.546;6.912;2024-01-15T08:09:43;0.70;99.90
13652;DHT22;6899;51.546;6.912;2024-01-15T08:12:10;0.70;99.90
13652;DHT22;6899;51.546;6.912;2024-01-15T08:14:38;0.60;99.90
13652;DHT22;6899;51.546;6.912;2024-01-15T08:17:05;0.60;99.90
13652;DHT22;6899;51.546;6.912;2024-01-15T08:19:31;0.60;99.90
13652;DHT22;6899;51.546;6.912;2024-01-15T08:21:58;0.50;99.90
13652;DHT22;6899;51.546;6.912;2024-01-15T08:24:26;0.50;99.90
13652;DHT22;6899;51.546;6.912;2024-01-15T08:26:54;0.50;99.90
13652;DHT22;6899;51.546;6.912;2024-01-15T08:29:21;0.50;99.90
13652;DHT22;6899;51.546;6.912;2024-01-15T08:31:50;0.50;99.90
13652;DHT22;6899;51.546;6.912;2024-01-15T08:34:17;0.40;99.90
13652;DHT22;6899;51.546;6.912;2024-01-15T08:36:43;0.50;99.90
13652;DHT22;6899;51.546;6.912;2024-01-15T08:39:11;0.40;99.90
13652;DHT22;6899;51.546;6.912;2024-01-15T08:41:39;0.40;99.90
13652;DHT22;6899;51.546;6.912;2024-01-15T08:44:05;0.40;99.90
13652;DHT22;6899;51.546;6.912;2024-01-15T08:46:32;0.40;99.90
13652;DHT22;6899;51.546;6.912;2024-01-15T08:48:59;0.40;99.90
13652;DHT22;6899;51.546;6.912;2024-01-15T08:51:26;0.40;99.90
13652;DHT22;6899;51.546;6.912;2024-01-15T08:53:53;0.40;99.90
13652;DHT22;6899;51.546;6.912;2024-01-15T08:56:20;0.40;99.90
13652;DHT22;6899;51.546;6.912;2024-01-15T08:58:48;0.40;99.90
13652;DHT22;6899;51.546;6.912;2024-01-15T09:01:15;0.40;99.90
13652;DHT22;6899;51.546;6.912;2024-01-15T09:03:42;0.40;99.90
13652;DHT22;6899;51.546;6.912;2024-01-15T09:06:08;0.40;99.90
13652;DHT22;6899;51.546;6.912;2024-01-15T09:08:36;0.40;99.90
13652;DHT22;6899;51.546;6.912;2024-01-15T09:11:02;0.40;99.90
13652;DHT22;6899;51.546;6.912;2024-01-15T09:13:29;0.40;99.90
13652;DHT22;6899;51.546;6.912;2024-01-15T09:15:58;0.30;99.90
13652;DHT22;6899;51.546;6.912;2024-01-15T09:18:25;0.30;99.90
13652;DHT22;6899;51.546;6.912;2024-01-15T09:20:52;0.30;99.90
13652;DHT22;6899;51.546;6.912;2024-01-15T09:23:18;0.20;99.90
13652;DHT22;6899;51.546;6.912;2024-01-15T09:25:45;0.20;99.90
13652;DHT22;6899;51.546;6.912;2024-01-15T09:28:13;0.20;99.90
13652;DHT22;6899;51.546;6.912;2024-01-15T09:30:40;0.20;99.90
13652;DHT22;6899;51.546;6.912;2024-01-15T09:33:08;0.20;99.90
13652;DHT22;6899;51.546;6.912;2024-01-15T09:35:35;0.30;99.90
13652;DHT22;6899;51.546;6.912;2024-01-15T09:38:02;0.30;99.90
13652;DHT22;6899;51.546;6.912;2024-01-15T09:40:31;0.30;99.90
13652;DHT22;6899;51.546;6.912;2024-01-15T09:42:59;0.30;99.90
13652;DHT22;6899;51.546;6.912;2024-01-15T09:45:26;0.30;99.90
13652;DHT22;6899;51.546;6.912;2024-01-15T09:47:53;0.30;99.90
13652;DHT22;6899;51.546;6.912;2024-01-15T09:50:21;0.20;99.90
13652;DHT22;6899;51.546;6.912;2024-01-15T09:52:48;0.30;99.90
13652;DHT22;6899;51.546;6.912;2024-01-15T09:55:17;0.40;99.90
13652;DHT22;6899;51.546;6.912;2024-01-15T09:57:44;0.40;99.90
13652;DHT22;6899;51.546;6.912;2024-01-15T10:00:13;0.50;99.90
13652;DHT22;6899;51.546;6.912;2024-01-15T10:02:41;0.60;99.90
13652;DHT22;6899;51.546;6.912;2024-01-15T10:05:08;0.60;99.90
13652;DHT22;6899;51.546;6.912;2024-01-15T10:07:37;0.60;99.90
13652;DHT22;6899;51.546;6.912;2024-01-15T10:10:05;0.60;99.90
13652;DHT22;6899;51.546;6.912;2024-01-15T10:12:32;0.50;99.90
13652;DHT22;6899;51.546;6.912;2024-01-15T10:14:59;0.60;99.90
13652;DHT22;6899;51.546;6.912;2024-01-15T10:17:26;0.60;99.90
13652;DHT22;6899;51.546;6.912;2024-01-15T10:19:53;0.70;99.90
13652;DHT22;6899;51.546;6.912;2024-01-15T10:22:20;0.70;99.90
13652;DHT22;6899;51.546;6.912;2024-01-15T10:24:48;0.70;99.90
13652;DHT22;6899;51.546;6.912;2024-01-15T10:27:16;0.70;99.90
13652;DHT22;6899;51.546;6.912;2024-01-15T10:29:43;0.70;99.90
13652;DHT22;6899;51.546;6.912;2024-01-15T10:32:10;0.70;99.90
13652;DHT22;6899;51.546;6.912;2024-01-15T10:34:38;0.70;99.90
13652;DHT22;6899;51.546;6.912;2024-01-15T10:37:07;0.90;99.90
13652;DHT22;6899;51.546;6.912;2024-01-15T10:39:35;1.00;99.90
13652;DHT22;6899;51.546;6.912;2024-01-15T10:42:04;0.90;99.90
13652;DHT22;6899;51.546;6.912;2024-01-15T10:44:31;0.80;99.90
13652;DHT22;6899;51.546;6.912;2024-01-15T10:46:58;0.70;99.90
13652;DHT22;6899;51.546;6.912;2024-01-15T10:49:26;0.70;99.90
13652;DHT22;6899;51.546;6.912;2024-01-15T10:51:54;0.70;99.90
13652;DHT22;6899;51.546;6.912;2024-01-15T10:54:23;0.70;99.90
13652;DHT22;6899;51.546;6.912;2024-01-15T10:56:50;0.90;99.90
13652;DHT22;6899;51.546;6.912;2024-01-15T10:59:20;1.00;99.90
13652;DHT22;6899;51.546;6.912;2024-01-15T11:01:48;1.10;99.90
13652;DHT22;6899;51.546;6.912;2024-01-15T11:04:16;1.10;99.90
13652;DHT22;6899;51.546;6.912;2024-01-15T11:06:44;1.10;99.90
13652;DHT22;6899;51.546;6.912;2024-01-15T11:09:12;1.10;99.90
13652;DHT22;6899;51.546;6.912;2024-01-15T11:11:41;1.20;99.90
13652;DHT22;6899;51.546;6.912;2024-01-15T11:14:08;1.30;99.90
13652;DHT22;6899;51.546;6.912;2024-01-15T11:16:55;1.40;99.90
13652;DHT22;6899;51.546;6.912;2024-01-15T11:19:22;1.50;99.90
13652;DHT22;6899;51.546;6.912;2024-01-15T11:21:49;1.20;99.90
13652;DHT22;6899;51.546;6.912;2024-01-15T11:24:34;1.20;99.90
13652;DHT22;6899;51.546;6.912;2024-01-15T11:27:02;1.30;99.90
13652;DHT22;6899;51.546;6.912;2024-01-15T11:29:30;1.30;99.90
13652;DHT22;6899;51.546;6.912;2024-01-15T11:31:59;1.40;99.90
13652;DHT22;6899;51.546;6.912;2024-01-15T11:34:58;1.40;99.90
13652;DHT22;6899;51.546;6.912;2024-01-15T11:37:28;1.40;99.90
13652;DHT22;6899;51.546;6.912;2024-01-15T11:39:55;1.30;99.90
13652;DHT22;6899;51.546;6.912;2024-01-15T11:42:23;1.40;99.90
13652;DHT22;6899;51.546;6.912;2024-01-15T11:44:49;1.50;99.90
13652;DHT22;6899;51.546;6.912;2024-01-15T11:47:44;1.50;99.90
13652;DHT22;6899;51.546;6.912;2024-01-15T11:50:17;1.40;99.90
13652;DHT22;6899;51.546;6.912;2024-01-15T11:52:50;1.40;99.90
13652;DHT22;6899;51.546;6.912;2024-01-15T11:55:22;1.40;99.90
13652;DHT22;6899;51.546;6.912;2024-01-15T11:57:53;1.30;99.90
13652;DHT22;6899;51.546;6.912;2024-01-15T12:00:21;1.40;99.90
13652;DHT22;6899;51.546;6.912;2024-01-15T12:02:50;1.40;99.90
13652;DHT22;6899;51.546;6.912;2024-01-15T12:05:18;1.40;99.90
13652;DHT22;6899;51.546;6.912;2024-01-15T12:07:46;1.40;99.90
13652;DHT22;6899;51.546;6.912;2024-01-15T12:10:15;1.40;99.90
13652;DHT22;6899;51.546;6.912;2024-01-15T12:12:54;1.50;99.90
13652;DHT22;6899;51.546;6.912;2024-01-15T12:15:24;1.60;99.90
13652;DHT22;6899;51.546;6.912;2024-01-15T12:17:54;1.90;99.90
13652;DHT22;6899;51.546;6.912;2024-01-15T12:20:23;1.90;99.90
13652;DHT22;6899;51.546;6.912;2024-01-15T12:22:50;1.90;99.90
13652;DHT22;6899;51.546;6.912;2024-01-15T12:25:18;1.90;99.90
13652;DHT22;6899;51.546;6.912;2024-01-15T12:27:45;1.80;99.90
13652;DHT22;6899;51.546;6.912;2024-01-15T12:30:12;1.60;99.90
13652;DHT22;6899;51.546;6.912;2024-01-15T12:32:41;1.40;99.90
13652;DHT22;6899;51.546;6.912;2024-01-15T12:35:10;1.30;99.90
13652;DHT22;6899;51.546;6.912;2024-01-15T12:37:37;1.20;99.90
13652;DHT22;6899;51.546;6.912;2024-01-15T12:40:06;1.10;99.90
13652;DHT22;6899;51.546;6.912;2024-01-15T12:42:33;1.00;99.90
13652;DHT22;6899;51.546;6.912;2024-01-15T12:45:00;1.00;99.90
13652;DHT22;6899;51.546;6.912;2024-01-15T12:47:27;1.10;99.90
13652;DHT22;6899;51.546;6.912;2024-01-15T12:49:54;1.20;99.90
13652;DHT22;6899;51.546;6.912;2024-01-15T12:52:22;1.40;99.90
13652;DHT22;6899;51.546;6.912;2024-01-15T12:54:49;1.50;99.90
13652;DHT22;6899;51.546;6.912;2024-01-15T12:57:17;1.50;99.90
13652;DHT22;6899;51.546;6.912;2024-01-15T12:59:43;1.40;99.90
13652;DHT22;6899;51.546;6.912;2024-01-15T13:02:10;1.40;99.90
13652;DHT22;6899;51.546;6.912;2024-01-15T13:04:37;1.40;99.90
13652;DHT22;6899;51.546;6.912;2024-01-15T13:07:04;1.40;99.90
13652;DHT22;6899;51.546;6.912;2024-01-15T13:09:33;1.40;99.90
13652;DHT22;6899;51.546;6.912;2024-01-15T13:12:00;1.50;99.90
13652;DHT22;6899;51.546;6.912;2024-01-15T13:14:27;1.40;99.90
13652;DHT22;6899;51.546;6.912;2024-01-15T13:16:54;1.50;99.90
13652;DHT22;6899;51.546;6.912;2024-01-15T13:19:21;1.50;99.90
13652;DHT22;6899;51.546;6.912;2024-01-15T13:21:48;1.60;99.90
13652;DHT22;6899;51.546;6.912;2024-01-15T13:24:16;1.60;99.90
13652;DHT22;6899;51.546;6.912;2024-01-15T13:26:45;1.60;99.90
13652;DHT22;6899;51.546;6.912;2024-01-15T13:29:13;1.60;99.90
13652;DHT22;6899;51.546;6.912;2024-01-15T13:31:40;1.70;99.90
13652;DHT22;6899;51.546;6.912;2024-01-15T13:34:07;1.70;99.90
13652;DHT22;6899;51.546;6.912;2024-01-15T13:36:34;1.70;99.90
13652;DHT22;6899;51.546;6.912;2024-01-15T13:39:04;1.70;99.90
13652;DHT22;6899;51.546;6.912;2024-01-15T13:41:34;1.80;99.90
13652;DHT22;6899;51.546;6.912;2024-01-15T13:44:02;1.80;99.90
13652;DHT22;6899;51.546;6.912;2024-01-15T13:46:29;1.90;99.90
13652;DHT22;6899;51.546;6.912;2024-01-15T13:48:56;1.90;99.90
13652;DHT22;6899;51.546;6.912;2024-01-15T13:51:23;2.00;99.90
13652;DHT22;6899;51.546;6.912;2024-01-15T13:53:49;2.00;99.90
13652;DHT22;6899;51.546;6.912;2024-01-15T13:56:17;2.00;99.90
13652;DHT22;6899;51.546;6.912;2024-01-15T13:58:44;2.00;99.90
13652;DHT22;6899;51.546;6.912;2024-01-15T14:01:12;1.90;99.90
13652;DHT22;6899;51.546;6.912;2024-01-15T14:03:38;1.90;99.90
13652;DHT22;6899;51.546;6.912;2024-01-15T14:06:05;1.90;99.90
13652;DHT22;6899;51.546;6.912;2024-01-15T14:08:34;1.70;99.90
13652;DHT22;6899;51.546;6.912;2024-01-15T14:11:01;1.60;99.90
13652;DHT22;6899;51.546;6.912;2024-01-15T14:13:28;1.60;99.90
13652;DHT22;6899;51.546;6.912;2024-01-15T14:15:55;1.50;99.90
13652;DHT22;6899;51.546;6.912;2024-01-15T14:18:23;1.50;99.90
13652;DHT22;6899;51.546;6.912;2024-01-15T14:20:50;1.50;99.90
13652;DHT22;6899;51.546;6.912;2024-01-15T14:23:17;1.50;99.90
13652;DHT22;6899;51.546;6.912;2024-01-15T14:25:44;1.50;99.90
13652;DHT22;6899;51.546;6.912;2024-01-15T14:28:11;1.40;99.90
13652;DHT22;6899;51.546;6.912;2024-01-15T14:30:38;1.40;99.90
13652;DHT22;6899;51.546;6.912;2024-01-15T14:33:05;1.40;99.90
13652;DHT22;6899;51.546;6.912;2024-01-15T14:35:33;1.40;99.90
13652;DHT22;6899;51.546;6.912;2024-01-15T14:37:59;1.30;99.90
13652;DHT22;6899;51.546;6.912;2024-01-15T14:40:26;1.30;99.90
13652;DHT22;6899;51.546;6.912;2024-01-15T14:42:53;1.20;99.90
13652;DHT22;6899;51.546;6.912;2024-01-15T14:45:20;1.10;99.90
13652;DHT22;6899;51.546;6.912;2024-01-15T14:47:48;1.10;99.90
13652;DHT22;6899;51.546;6.912;2024-01-15T14:50:15;1.20;99.90
13652;DHT22;6899;51.546;6.912;2024-01-15T14:52:43;1.20;99.90
13652;DHT22;6899;51.546;6.912;2024-01-15T14:55:11;1.10;99.90
13652;DHT22;6899;51.546;6.912;2024-01-15T14:57:38;0.90;99.90
13652;DHT22;6899;51.546;6.912;2024-01-15T15:00:06;0.80;99.90
13652;DHT22;6899;51.546;6.912;2024-01-15T15:02:34;0.70;99.90
13652;DHT22;6899;51.546;6.912;2024-01-15T15:05:01;0.70;99.90
13652;DHT22;6899;51.546;6.912;2024-01-15T15:07:28;0.60;99.90
13652;DHT22;6899;51.546;6.912;2024-01-15T15:09:56;0.50;99.90
13652;DHT22;6899;51.546;6.912;2024-01-15T15:12:23;0.60;99.90
13652;DHT22;6899;51.546;6.912;2024-01-15T15:14:50;0.60;99.90
13652;DHT22;6899;51.546;6.912;2024-01-15T15:17:17;0.50;99.90
13652;DHT22;6899;51.546;6.912;2024-01-15T15:19:43;0.60;99.90
13652;DHT22;6899;51.546;6.912;2024-01-15T15:22:10;0.60;99.90
13652;DHT22;6899;51.546;6.912;2024-01-15T15:24:37;0.60;99.90
13652;DHT22;6899;51.546;6.912;2024-01-15T15:27:05;0.60;99.90
13652;DHT22;6899;51.546;6.912;2024-01-15T15:29:33;0.60;99.90
13652;DHT22;6899;51.546;6.912;2024-01-15T15:32:00;0.70;99.90
13652;DHT22;6899;51.546;6.912;2024-01-15T15:34:27;0.70;99.90
13652;DHT22;6899;51.546;6.912;2024-01-15T15:36:54;0.70;99.90
13652;DHT22;6899;51.546;6.912;2024-01-15T15:39:20;0.70;99.90
13652;DHT22;6899;51.546;6.912;2024-01-15T15:41:48;0.60;99.90
13652;DHT22;6899;51.546;6.912;2024-01-15T15:44:16;0.60;99.90
13652;DHT22;6899;51.546;6.912;2024-01-15T15:46:43;0.70;99.90
13652;DHT22;6899;51.546;6.912;2024-01-15T15:49:10;0.70;99.90
13652;DHT22;6899;51.546;6.912;2024-01-15T15:51:37;0.70;99.90
13652;DHT22;6899;51.546;6.912;2024-01-15T15:54:04;0.60;99.90
13652;DHT22;6899;51.546;6.912;2024-01-15T15:56:31;0.50;99.90
13652;DHT22;6899;51.546;6.912;2024-01-15T15:58:59;0.40;99.90
13652;DHT22;6899;51.546;6.912;2024-01-15T16:01:29;0.30;99.90
13652;DHT22;6899;51.546;6.912;2024-01-15T16:03:55;0.10;99.90
13652;DHT22;6899;51.546;6.912;2024-01-15T16:06:22;0.10;99.90